Cerejeira, Brazil
Current Conditions -  °F | °C
As of 6:15 AM on Thursday 29 Jan 2015 (Local Time) from SBVH Reporting Station
Clear Clear  
Wind Chill: 70°   Ceiling: Unl
Heat Index: 70°   Visibility: 6mi
Dew Point: 70°   Wind: 3mph
Humidity: 100%   Direction: 90°E
Pressure: 29.97"   Gusts: NA
Location:  13.19°S, 60.81°W
Report Text: SBVH 291015Z 09003KT CAVOK 21/21 Q1015
Loading
Personal Weather Stations






























Interactive Weather Map New forecast layout! Learn more

10-Day Weather Forecast

Advertisements
Track Severe Weather on mobile